createdAt,value
2019-03-28T00:02:20.867Z,15.90
2019-03-28T00:04:50.820Z,19.52
2019-03-28T00:07:23.884Z,15.53
2019-03-28T00:09:52.316Z,19.82
2019-03-28T00:12:22.213Z,12.60
2019-03-28T00:14:52.234Z,14.50
2019-03-28T00:17:22.530Z,16.23
2019-03-28T00:19:52.406Z,13.10
2019-03-28T00:22:36.757Z,11.05
2019-03-28T00:25:09.097Z,16.50
2019-03-28T00:27:39.003Z,14.05
2019-03-28T00:30:09.169Z,14.28
2019-03-28T00:32:39.145Z,11.30
2019-03-28T00:35:09.072Z,12.65
2019-03-28T00:37:39.039Z,16.05
2019-03-28T00:40:09.084Z,14.40
2019-03-28T00:42:39.066Z,18.32
2019-03-28T00:45:09.169Z,14.65
2019-03-28T00:47:39.149Z,15.08
2019-03-28T00:50:09.839Z,17.75
2019-03-28T00:52:39.737Z,22.00
2019-03-28T00:55:09.632Z,16.02
2019-03-28T00:57:39.574Z,23.50
2019-03-28T01:00:09.914Z,20.20
2019-03-28T01:02:39.830Z,21.23
2019-03-28T01:05:10.118Z,23.57
2019-03-28T01:07:40.059Z,14.00
2019-03-28T01:10:10.193Z,20.05
2019-03-28T01:12:40.030Z,25.95
2019-03-28T01:15:09.973Z,21.82
2019-03-28T01:17:39.887Z,21.12
2019-03-28T01:20:10.376Z,15.70
2019-03-28T01:22:40.335Z,12.98
2019-03-28T01:25:10.262Z,16.20
2019-03-28T01:27:40.124Z,12.47
2019-03-28T01:30:11.236Z,21.87
2019-03-28T01:32:41.123Z,10.45
2019-03-28T01:35:11.331Z,11.95
2019-03-28T01:37:41.289Z,17.85
2019-03-28T01:40:11.186Z,10.35
2019-03-28T01:42:41.079Z,14.23
2019-03-28T01:45:11.130Z,17.42
2019-03-28T01:47:41.029Z,10.13
2019-03-28T01:50:12.137Z,10.95
2019-03-28T01:52:41.967Z,10.45
2019-03-28T01:55:11.841Z,10.70
2019-03-28T01:57:41.725Z,12.50
2019-03-28T02:00:15.389Z,14.90
2019-03-28T02:02:45.471Z,13.00
2019-03-28T02:05:15.431Z,14.35
2019-03-28T02:07:45.308Z,11.35
2019-03-28T02:10:15.488Z,15.23
2019-03-28T02:12:45.545Z,18.67
2019-03-28T02:15:15.701Z,14.45
2019-03-28T02:17:45.541Z,15.32
2019-03-28T02:20:15.709Z,11.88
2019-03-28T02:22:45.605Z,12.65
2019-03-28T02:25:15.571Z,11.25
2019-03-28T02:27:45.470Z,16.60
2019-03-28T02:30:17.019Z,10.40
2019-03-28T02:32:47.042Z,15.05
2019-03-28T02:35:17.009Z,13.58
2019-03-28T02:37:46.982Z,14.87
2019-03-28T02:40:17.083Z,12.60
2019-03-28T02:42:46.995Z,13.05
2019-03-28T02:45:16.989Z,11.65
2019-03-28T02:47:46.888Z,15.95
2019-03-28T02:50:16.791Z,13.90
2019-03-28T02:52:47.456Z,14.28
2019-03-28T02:55:17.504Z,15.95
2019-03-28T02:57:47.438Z,15.05
2019-03-28T03:00:17.607Z,15.08
2019-03-28T03:02:47.593Z,12.80
2019-03-28T03:05:17.551Z,19.07
2019-03-28T03:07:47.460Z,17.75
2019-03-28T03:10:17.650Z,10.60
2019-03-28T03:13:06.569Z,14.05
2019-03-28T03:15:36.458Z,14.10
2019-03-28T03:18:06.442Z,13.00
2019-03-28T03:20:37.586Z,13.65
2019-03-28T03:23:07.544Z,9.75
2019-03-28T03:25:37.436Z,14.68
2019-03-28T03:28:07.298Z,17.00
2019-03-28T03:30:37.226Z,17.23
2019-03-28T03:33:08.942Z,15.32
2019-03-28T03:35:38.712Z,22.87
2019-03-28T03:38:08.735Z,16.87
2019-03-28T03:40:38.582Z,11.55
2019-03-28T03:43:08.666Z,14.73
2019-03-28T03:45:38.597Z,15.35
2019-03-28T03:48:08.536Z,19.70
2019-03-28T03:50:38.417Z,14.93
2019-03-28T03:53:08.397Z,14.98
2019-03-28T03:55:38.283Z,12.90
2019-03-28T03:58:16.039Z,15.35
2019-03-28T04:00:39.809Z,21.60
2019-03-28T04:03:09.735Z,8.80
2019-03-28T04:05:39.602Z,12.05
2019-03-28T04:08:09.492Z,18.45
2019-03-28T04:10:39.469Z,16.07
2019-03-28T04:13:09.379Z,22.73
2019-03-28T04:15:39.344Z,14.38
2019-03-28T04:18:09.285Z,13.85
2019-03-28T04:20:39.253Z,18.85
2019-03-28T04:23:09.155Z,12.00
2019-03-28T04:25:39.754Z,12.45
2019-03-28T04:28:09.915Z,15.20
2019-03-28T04:30:39.877Z,15.83
2019-03-28T04:33:09.798Z,31.50
2019-03-28T04:35:39.767Z,16.12
2019-03-28T04:38:11.210Z,20.37
2019-03-28T04:40:41.119Z,17.75
2019-03-28T04:43:10.963Z,13.53
2019-03-28T04:45:40.813Z,27.30
2019-03-28T04:48:10.730Z,20.10
2019-03-28T04:50:40.646Z,15.90
2019-03-28T04:53:11.512Z,29.45
2019-03-28T04:55:41.577Z,18.95
2019-03-28T04:58:11.545Z,19.85
2019-03-28T05:00:41.395Z,15.98
2019-03-28T05:03:11.224Z,20.75
2019-03-28T05:05:41.136Z,23.62
2019-03-28T05:08:11.092Z,19.98
2019-03-28T05:10:41.566Z,13.08
2019-03-28T05:13:11.704Z,10.75
2019-03-28T05:15:41.683Z,22.15
2019-03-28T05:18:11.631Z,21.17
2019-03-28T05:20:41.557Z,17.12
2019-03-28T05:23:11.439Z,23.22
2019-03-28T05:25:41.396Z,13.28
2019-03-28T05:28:11.321Z,21.27
2019-03-28T05:30:41.279Z,15.45
2019-03-28T05:33:11.146Z,16.52
2019-03-28T05:35:41.076Z,14.50
2019-03-28T05:38:11.087Z,14.53
2019-03-28T05:40:41.066Z,16.97
2019-03-28T05:43:11.056Z,17.70
2019-03-28T05:45:40.983Z,27.82
2019-03-28T05:48:11.039Z,20.90
2019-03-28T05:50:41.054Z,24.77
2019-03-28T05:53:11.006Z,24.07
2019-03-28T05:55:40.940Z,20.20
2019-03-28T05:58:10.900Z,17.30
2019-03-28T06:00:41.050Z,24.47
2019-03-28T06:03:11.082Z,21.40
2019-03-28T06:05:41.013Z,15.95
2019-03-28T06:08:10.993Z,20.37
2019-03-28T06:10:40.914Z,21.75
2019-03-28T06:13:10.876Z,21.45
2019-03-28T06:15:41.250Z,22.85
2019-03-28T06:18:11.262Z,24.55
2019-03-28T06:20:41.218Z,26.15
2019-03-28T06:23:11.125Z,26.48
2019-03-28T06:25:41.085Z,21.90
2019-03-28T06:28:10.966Z,22.85
2019-03-28T06:30:40.866Z,21.80
2019-03-28T06:33:10.810Z,18.95
2019-03-28T06:35:40.726Z,24.40
2019-03-28T06:38:10.702Z,23.67
2019-03-28T06:40:40.602Z,27.15
2019-03-28T06:43:10.481Z,25.85
2019-03-28T06:45:40.480Z,17.48
2019-03-28T06:48:10.428Z,30.70
2019-03-28T06:50:40.287Z,24.75
2019-03-28T06:53:10.116Z,25.48
2019-03-28T06:55:40.004Z,27.30
2019-03-28T06:58:09.949Z,32.88
2019-03-28T07:00:39.826Z,19.10
2019-03-28T07:03:09.811Z,22.55
2019-03-28T07:05:39.690Z,34.67
2019-03-28T07:08:09.620Z,27.00
2019-03-28T07:10:39.583Z,26.02
2019-03-28T07:13:10.340Z,27.02
2019-03-28T07:15:40.452Z,25.43
2019-03-28T07:18:10.286Z,20.00
2019-03-28T07:20:40.259Z,22.32
2019-03-28T07:23:10.250Z,20.80
2019-03-28T07:25:40.168Z,22.82
2019-03-28T07:28:10.076Z,26.62
2019-03-28T07:30:40.036Z,27.15
2019-03-28T07:33:09.907Z,25.45
2019-03-28T07:35:39.810Z,25.57
2019-03-28T07:38:09.771Z,21.68
2019-03-28T07:40:39.683Z,20.75
2019-03-28T07:43:09.666Z,23.38
2019-03-28T07:45:39.570Z,30.68
2019-03-28T07:48:09.521Z,15.63
2019-03-28T07:50:42.376Z,19.35
2019-03-28T07:53:11.206Z,21.57
2019-03-28T07:55:41.060Z,23.73
2019-03-28T07:58:11.098Z,22.82
2019-03-28T08:00:41.058Z,21.37
2019-03-28T08:03:11.038Z,22.07
2019-03-28T08:05:40.966Z,30.35
2019-03-28T08:08:10.907Z,25.75
2019-03-28T08:10:40.808Z,27.32
2019-03-28T08:13:10.747Z,22.48
2019-03-28T08:15:40.639Z,27.37
2019-03-28T08:18:10.602Z,34.65
2019-03-28T08:20:40.641Z,26.23
2019-03-28T08:23:10.565Z,27.65
2019-03-28T08:25:41.581Z,34.53
2019-03-28T08:28:11.669Z,37.03
2019-03-28T08:30:41.607Z,31.35
2019-03-28T08:33:11.517Z,28.00
2019-03-28T08:35:41.456Z,40.90
2019-03-28T08:38:11.369Z,32.85
2019-03-28T08:40:42.898Z,31.20
2019-03-28T08:43:14.752Z,25.92
2019-03-28T08:45:44.877Z,32.08
2019-03-28T08:48:14.881Z,26.65
2019-03-28T08:50:44.806Z,21.42
2019-03-28T08:53:14.720Z,21.30
2019-03-28T08:55:44.581Z,27.87
2019-03-28T08:58:14.554Z,23.60
2019-03-28T09:00:52.086Z,23.65
2019-03-28T09:03:17.394Z,26.42
2019-03-28T09:05:48.622Z,18.07
2019-03-28T09:08:18.599Z,22.58
2019-03-28T09:10:48.569Z,21.75
2019-03-28T09:13:18.602Z,18.25
2019-03-28T09:15:48.565Z,19.40
2019-03-28T09:18:18.596Z,25.17
2019-03-28T09:20:48.537Z,26.00
2019-03-28T09:23:18.531Z,28.80
2019-03-28T09:25:48.540Z,25.55
2019-03-28T09:28:18.503Z,25.25
2019-03-28T09:30:49.642Z,23.63
2019-03-28T09:33:20.132Z,27.50
2019-03-28T09:35:50.219Z,21.87
2019-03-28T09:38:20.352Z,16.07
2019-03-28T09:40:50.346Z,23.27
2019-03-28T09:43:20.272Z,21.93
2019-03-28T09:45:50.242Z,26.17
2019-03-28T09:48:20.142Z,25.70
2019-03-28T09:50:50.034Z,19.47
2019-03-28T09:53:20.059Z,15.37
2019-03-28T09:55:50.140Z,18.27
2019-03-28T09:58:20.095Z,19.37
2019-03-28T10:01:02.216Z,25.43
2019-03-28T10:03:21.691Z,17.07
2019-03-28T10:05:53.386Z,17.53
2019-03-28T10:08:23.333Z,26.03
2019-03-28T10:10:53.276Z,21.77
2019-03-28T10:13:23.230Z,21.53
2019-03-28T10:15:53.098Z,21.93
2019-03-28T10:18:23.033Z,22.63
2019-03-28T10:20:53.017Z,16.33
2019-03-28T10:23:22.865Z,17.37
2019-03-28T10:25:52.984Z,19.30
2019-03-28T10:28:22.952Z,18.67
2019-03-28T10:30:52.945Z,21.03
2019-03-28T10:33:23.080Z,18.80
2019-03-28T10:35:53.199Z,20.37
2019-03-28T10:38:23.187Z,17.83
2019-03-28T10:40:53.256Z,30.27
2019-03-28T10:43:23.336Z,27.23
2019-03-28T10:45:53.372Z,18.57
2019-03-28T10:48:23.583Z,25.37
2019-03-28T10:50:54.964Z,19.43
2019-03-28T10:53:24.963Z,24.23
2019-03-28T10:55:54.941Z,22.80
2019-03-28T10:58:24.966Z,19.83
2019-03-28T11:00:55.848Z,24.37
2019-03-28T11:03:26.537Z,22.10
2019-03-28T11:05:56.575Z,21.90
2019-03-28T11:08:26.713Z,23.03
2019-03-28T11:10:56.783Z,23.97
2019-03-28T11:13:26.832Z,18.50
2019-03-28T11:15:56.789Z,12.70
2019-03-28T11:18:26.755Z,13.73
2019-03-28T11:20:56.656Z,19.30
2019-03-28T11:23:26.634Z,19.00
2019-03-28T11:25:57.481Z,19.43
2019-03-28T11:28:27.709Z,19.13
2019-03-28T11:30:57.633Z,19.00
2019-03-28T11:33:27.623Z,28.63
2019-03-28T11:35:57.564Z,23.30
2019-03-28T11:38:27.503Z,19.03
2019-03-28T11:40:57.474Z,18.70
2019-03-28T11:43:27.420Z,15.50
2019-03-28T11:45:57.540Z,16.67
2019-03-28T11:48:27.453Z,14.03
2019-03-28T11:50:57.451Z,17.20
2019-03-28T11:53:27.547Z,18.70
2019-03-28T11:55:57.592Z,18.53
2019-03-28T11:58:27.825Z,20.13
2019-03-28T12:00:57.712Z,19.73
2019-03-28T12:03:27.656Z,19.70
2019-03-28T12:05:57.576Z,23.77
2019-03-28T12:08:27.622Z,19.17
2019-03-28T12:10:57.621Z,17.83
2019-03-28T12:13:28.746Z,21.37
2019-03-28T12:15:58.736Z,23.80
2019-03-28T12:18:28.877Z,16.63
2019-03-28T12:20:58.840Z,17.43
2019-03-28T12:23:28.914Z,20.47
2019-03-28T12:25:58.902Z,20.73
2019-03-28T12:28:28.957Z,15.50
2019-03-28T12:30:59.110Z,20.83
2019-03-28T12:33:29.092Z,13.13
2019-03-28T12:35:59.055Z,14.10
2019-03-28T12:38:29.014Z,17.13
2019-03-28T12:40:59.122Z,13.60
2019-03-28T12:43:29.085Z,12.07
2019-03-28T12:45:59.143Z,15.37
2019-03-28T12:48:29.156Z,12.40
2019-03-28T12:50:59.976Z,13.50
2019-03-28T12:53:30.733Z,17.03
2019-03-28T12:56:00.661Z,14.60
2019-03-28T12:58:30.655Z,11.50
2019-03-28T13:01:00.753Z,20.00
2019-03-28T13:03:44.483Z,9.37
2019-03-28T13:06:02.385Z,8.73
2019-03-28T13:08:32.426Z,9.50
2019-03-28T13:11:02.420Z,6.70
2019-03-28T13:13:32.400Z,7.30
2019-03-28T13:16:02.365Z,6.00
2019-03-28T13:18:32.314Z,7.57
2019-03-28T13:21:12.712Z,6.17
2019-03-28T13:23:33.964Z,6.50
2019-03-28T13:26:03.916Z,10.23
2019-03-28T13:28:33.872Z,9.10
2019-03-28T13:31:09.697Z,7.60
2019-03-28T13:33:39.682Z,8.80
2019-03-28T13:36:09.653Z,8.30
2019-03-28T13:38:40.815Z,5.40
2019-03-28T13:41:10.820Z,5.70
2019-03-28T13:43:40.809Z,7.07
2019-03-28T13:46:10.751Z,5.30
2019-03-28T13:48:40.768Z,6.17
2019-03-28T13:51:10.788Z,4.87
2019-03-28T13:53:40.712Z,6.87
2019-03-28T13:56:10.584Z,4.60
2019-03-28T13:58:40.512Z,7.87
2019-03-28T14:01:10.452Z,4.57
2019-03-28T14:03:59.308Z,3.77
2019-03-28T14:06:29.843Z,3.70
2019-03-28T14:09:00.607Z,3.50
2019-03-28T14:11:30.825Z,3.50
2019-03-28T14:14:00.779Z,3.70
2019-03-28T14:16:30.868Z,3.30
2019-03-28T14:19:00.807Z,2.80
2019-03-28T14:21:30.775Z,2.67
2019-03-28T14:24:00.691Z,4.13
2019-03-28T14:26:30.583Z,4.53
2019-03-28T14:29:00.578Z,2.87
2019-03-28T14:31:30.571Z,3.37
2019-03-28T14:34:00.488Z,3.63
2019-03-28T14:36:30.434Z,2.77
2019-03-28T14:39:00.421Z,2.67
2019-03-28T14:41:30.378Z,3.00
2019-03-28T14:44:00.308Z,2.70
2019-03-28T14:46:30.214Z,3.10
2019-03-28T14:49:00.257Z,4.00
2019-03-28T14:51:30.246Z,3.97
2019-03-28T14:54:00.218Z,4.00
2019-03-28T14:56:30.513Z,2.77
2019-03-28T14:59:01.283Z,2.70
2019-03-28T15:01:31.232Z,3.47
2019-03-28T15:04:01.187Z,3.07
2019-03-28T15:06:31.060Z,3.03
2019-03-28T15:09:01.040Z,3.63
2019-03-28T15:11:31.005Z,3.37
2019-03-28T15:14:01.117Z,6.13
2019-03-28T15:16:31.110Z,5.60
2019-03-28T15:19:01.140Z,2.93
2019-03-28T15:21:31.147Z,3.73
2019-03-28T15:24:01.077Z,4.30
2019-03-28T15:26:30.957Z,3.43
2019-03-28T15:29:00.988Z,3.70
2019-03-28T15:31:30.943Z,4.33
2019-03-28T15:34:01.013Z,4.70
2019-03-28T15:36:30.957Z,5.30
2019-03-28T15:39:00.944Z,6.63
2019-03-28T15:41:30.916Z,6.30
2019-03-28T15:44:00.769Z,4.40
2019-03-28T15:46:30.780Z,4.97
2019-03-28T15:49:01.802Z,5.17
2019-03-28T15:51:31.847Z,9.07
2019-03-28T15:54:01.794Z,5.53
2019-03-28T15:56:31.643Z,7.20
2019-03-28T15:59:01.818Z,5.87
2019-03-28T16:01:31.845Z,6.90
2019-03-28T16:04:01.958Z,5.20
2019-03-28T16:06:31.940Z,6.57
2019-03-28T16:09:01.991Z,5.67
2019-03-28T16:11:31.964Z,6.97
2019-03-28T16:14:01.937Z,9.73
2019-03-28T16:16:32.416Z,8.63
2019-03-28T16:19:02.450Z,7.70
2019-03-28T16:21:32.393Z,7.50
2019-03-28T16:24:02.317Z,12.63
2019-03-28T16:26:32.216Z,10.47
2019-03-28T16:29:02.191Z,6.43
2019-03-28T16:31:32.120Z,7.20
2019-03-28T16:34:07.166Z,8.40
2019-03-28T16:36:33.974Z,7.40
2019-03-28T16:39:04.887Z,10.03
2019-03-28T16:41:35.214Z,6.53
2019-03-28T16:44:06.020Z,7.70
2019-03-28T16:46:36.944Z,7.07
2019-03-28T16:49:08.300Z,9.60
2019-03-28T16:51:39.190Z,5.87
2019-03-28T16:54:10.066Z,7.10
2019-03-28T16:56:40.578Z,6.07
2019-03-28T16:59:10.730Z,6.20
2019-03-28T17:01:40.770Z,9.00
2019-03-28T17:04:20.554Z,6.67
2019-03-28T17:06:43.519Z,5.20
2019-03-28T17:09:14.156Z,5.67
2019-03-28T17:11:44.323Z,5.10
2019-03-28T17:14:14.386Z,5.97
2019-03-28T17:16:44.642Z,5.33
2019-03-28T17:19:15.066Z,7.40
2019-03-28T17:21:45.331Z,6.03
2019-03-28T17:24:15.916Z,8.90
2019-03-28T17:26:46.173Z,5.10
2019-03-28T17:29:19.331Z,5.30
2019-03-28T17:31:49.611Z,6.17
2019-03-28T17:34:19.574Z,5.33
2019-03-28T17:36:49.859Z,5.73
2019-03-28T17:39:20.305Z,5.10
2019-03-28T17:41:50.493Z,5.13
2019-03-28T17:44:21.483Z,5.40
2019-03-28T17:46:53.083Z,5.30
2019-03-28T17:49:23.491Z,5.33
2019-03-28T17:51:53.880Z,7.60
2019-03-28T17:54:24.461Z,4.70
2019-03-28T17:56:54.951Z,5.97
2019-03-28T17:59:25.334Z,4.43
2019-03-28T18:01:55.506Z,3.80
2019-03-28T18:04:25.885Z,6.53
2019-03-28T18:06:56.626Z,4.50
2019-03-28T18:09:27.162Z,7.70
2019-03-28T18:11:57.403Z,4.10
2019-03-28T18:14:27.459Z,4.47
2019-03-28T18:16:57.489Z,3.50
2019-03-28T18:19:27.579Z,4.60
2019-03-28T18:22:03.199Z,5.57
2019-03-28T18:24:30.536Z,4.47
2019-03-28T18:27:00.610Z,5.20
2019-03-28T18:29:30.743Z,6.70
2019-03-28T18:32:00.837Z,5.10
2019-03-28T18:34:30.932Z,5.03
2019-03-28T18:37:01.050Z,4.25
2019-03-28T18:39:31.159Z,8.07
2019-03-28T18:42:01.451Z,7.37
2019-03-28T18:44:31.557Z,25.60
2019-03-28T18:47:01.747Z,14.00
2019-03-28T18:49:31.947Z,24.37
2019-03-28T18:52:02.306Z,19.30
2019-03-28T18:54:32.463Z,9.30
2019-03-28T18:57:03.365Z,17.32
2019-03-28T18:59:33.718Z,25.07
2019-03-28T19:02:04.050Z,42.43
2019-03-28T19:04:34.154Z,33.63
2019-03-28T19:07:04.301Z,7.53
2019-03-28T19:09:34.463Z,5.83
2019-03-28T19:12:04.508Z,6.50
2019-03-28T19:14:34.656Z,18.70
2019-03-28T19:17:04.824Z,7.85
2019-03-28T19:19:39.466Z,6.05
2019-03-28T19:22:06.880Z,6.67
2019-03-28T19:24:37.140Z,6.78
2019-03-28T19:27:07.347Z,6.65
2019-03-28T19:29:37.391Z,4.40
2019-03-28T19:32:07.495Z,4.67
2019-03-28T19:34:37.839Z,6.50
2019-03-28T19:37:08.021Z,6.58
2019-03-28T19:39:38.332Z,6.15
2019-03-28T19:42:08.388Z,5.45
2019-03-28T19:44:38.781Z,7.62
2019-03-28T19:47:08.924Z,6.90
2019-03-28T19:49:39.023Z,7.05
2019-03-28T19:52:09.066Z,13.78
2019-03-28T19:54:39.277Z,9.30
2019-03-28T19:57:09.406Z,9.93
2019-03-28T19:59:39.561Z,12.78
2019-03-28T20:02:09.713Z,8.43
2019-03-28T20:04:39.858Z,8.90
2019-03-28T20:07:20.865Z,9.58
2019-03-28T20:09:41.844Z,11.88
2019-03-28T20:12:11.973Z,11.80
2019-03-28T20:14:41.996Z,12.90
2019-03-28T20:17:12.123Z,11.97
2019-03-28T20:19:42.358Z,11.05
2019-03-28T20:22:12.410Z,12.45
2019-03-28T20:24:42.413Z,11.60
2019-03-28T20:27:12.423Z,11.18
2019-03-28T20:29:42.762Z,11.22
2019-03-28T20:32:12.957Z,8.45
2019-03-28T20:34:43.113Z,6.33
2019-03-28T20:37:13.203Z,6.67
2019-03-28T20:39:43.270Z,6.08
2019-03-28T20:42:13.675Z,8.60
2019-03-28T20:44:44.759Z,7.35
2019-03-28T20:47:14.809Z,9.15
2019-03-28T20:49:46.646Z,12.15
2019-03-28T20:52:16.735Z,8.15
2019-03-28T20:54:46.675Z,8.65
2019-03-28T20:57:16.709Z,10.72
2019-03-28T20:59:47.015Z,8.30
2019-03-28T21:02:17.110Z,12.82
2019-03-28T21:04:47.330Z,8.78
2019-03-28T21:07:20.105Z,9.93
2019-03-28T21:09:50.014Z,8.35
2019-03-28T21:12:20.099Z,11.38
2019-03-28T21:14:50.215Z,7.95
2019-03-28T21:17:20.197Z,7.55
2019-03-28T21:19:50.191Z,11.97
2019-03-28T21:22:20.850Z,8.63
2019-03-28T21:24:50.909Z,6.83
2019-03-28T21:27:20.954Z,8.13
2019-03-28T21:29:51.135Z,7.37
2019-03-28T21:32:21.249Z,6.30
2019-03-28T21:34:51.186Z,8.53
2019-03-28T21:37:21.102Z,6.55
2019-03-28T21:39:51.125Z,7.22
2019-03-28T21:42:21.116Z,9.30
2019-03-28T21:44:51.095Z,8.88
2019-03-28T21:47:21.160Z,5.58
2019-03-28T21:49:51.063Z,7.55
2019-03-28T21:52:21.006Z,7.65
2019-03-28T21:54:51.000Z,8.23
2019-03-28T21:57:20.916Z,6.95
2019-03-28T21:59:50.808Z,6.00
2019-03-28T22:02:20.738Z,7.17
2019-03-28T22:04:50.774Z,6.17
2019-03-28T22:07:20.740Z,8.85
2019-03-28T22:09:51.152Z,6.33
2019-03-28T22:12:21.312Z,7.70
2019-03-28T22:14:51.291Z,6.62
2019-03-28T22:17:21.243Z,8.18
2019-03-28T22:19:51.813Z,8.63
2019-03-28T22:22:22.011Z,15.68
2019-03-28T22:24:51.971Z,12.28
2019-03-28T22:27:21.903Z,10.58
2019-03-28T22:29:51.905Z,11.50
2019-03-28T22:32:22.996Z,12.53
2019-03-28T22:34:53.024Z,10.48
2019-03-28T22:37:23.028Z,12.85
2019-03-28T22:39:53.033Z,8.93
2019-03-28T22:42:23.135Z,8.53
2019-03-28T22:44:53.074Z,15.45
2019-03-28T22:47:22.967Z,12.33
2019-03-28T22:49:52.950Z,11.40
2019-03-28T22:52:23.068Z,10.45
2019-03-28T22:54:52.928Z,7.75
2019-03-28T22:57:22.899Z,8.45
2019-03-28T22:59:52.933Z,14.30
2019-03-28T23:02:22.975Z,10.85
2019-03-28T23:04:52.870Z,9.30
2019-03-28T23:07:22.759Z,9.15
2019-03-28T23:09:52.664Z,19.80
2019-03-28T23:12:22.629Z,11.60
2019-03-28T23:14:52.477Z,12.07
2019-03-28T23:17:22.379Z,9.28
2019-03-28T23:19:52.271Z,10.30
2019-03-28T23:22:22.279Z,9.43
2019-03-28T23:24:52.282Z,9.63
2019-03-28T23:27:22.230Z,9.13
2019-03-28T23:29:52.061Z,13.53
2019-03-28T23:32:22.012Z,11.10
2019-03-28T23:34:51.983Z,12.58
2019-03-28T23:37:24.854Z,10.88
2019-03-28T23:39:53.646Z,13.45
2019-03-28T23:42:23.593Z,12.45
2019-03-28T23:44:53.864Z,13.08
2019-03-28T23:47:23.767Z,15.40
2019-03-28T23:49:53.792Z,10.23
2019-03-28T23:52:23.738Z,17.25
2019-03-28T23:54:53.708Z,10.82
2019-03-28T23:57:23.624Z,11.75
2019-03-28T23:59:53.391Z,12.15
